Prior Lake, MN (55372)

11:14 PM CDT on June 29, 2015 (GMT -0500)
Fish Lake Area | | Change Station
CLOSE
Current Station
Personal Weather Station
Location: Prior Lake, MN
Elevation: 974 ft
Nearby Weather Stations

Elev 974 ft 44.65 °N, 93.44 °W | Updated 11 seconds ago

Partly Cloudy
Partly Cloudy
63.7 °F
Feels Like 63.7 °F
N
0.0
Wind Variable Wind from ENE
Gusts 0.0 mph

Today
High -- | Low -- °F
--% Chance of Precip.
Yesterday
High -- | Low -- °F
Precip. -- in
5:30 AM 9:03 PM
Waxing Gibbous, 96% visible
Pressure 29.80 in
Visibility 5.0 miles
Clouds Few 9500 ft
Dew Point 62 °F
Humidity 93%
Rainfall in
Snow Depth Not available.
UV 0 out of 12
Pollen 4.90 out of 12
Air Quality Not available.
Flu Activity Sporadic
METAR KFCM 300253Z 23003KT 5SM BR FEW095 18/17 A2981 RMK AO2 RAE28 TSE0158B08E28 SLP090 P0026 60068 T01830167 53000

More Conditions Fewer Conditions

Pressure 29.80 in
Visibility 5.0 miles
Clouds Few 9500 ft
Dew Point 62 °F
Humidity 93%
Rainfall in
Snow Depth Not available.
UV 0 out of 12
Pollen 4.90 out of 12
Air Quality Not available.
Flu Activity Sporadic
METAR KFCM 300253Z 23003KT 5SM BR FEW095 18/17 A2981 RMK AO2 RAE28 TSE0158B08E28 SLP090 P0026 60068 T01830167 53000

More Conditions Fewer Conditions

10-Day Weather Forecast

×

Almanac

Astronomy

Jun. 29, 2015 Rise Set
Actual Time
Civil Twilight
Nautical Twilight
Astronomical Twilight
Moon
Length of Visible Light
Length of Day
Tomorrow will be .
, % of the Moon is Illuminated

Today's Extremes

State Highs State Lows

Community

WunderPhotos

Upload Photos

1,833,960 photos uploaded!

WunderBlogs® & News

Nearby

Air Quality

  Air Quality AQ Index Pollutant
Not available.

Snow Depth

Station Depth Elevation

Earthquake Activity

City Distance Mag. Time & Date
Minimum magnitude displayed is 2.5.

Coastal Water Temperatures

Place Temperature

Stations

Nearby Weather Stations

Station Location Temp. Windchill Dew Point Humidity Wind Precip. Elev Updated Type